createdAt,value
2022-12-16T00:01:16.334Z,24.10
2022-12-16T00:03:48.156Z,24.50
2022-12-16T00:06:14.977Z,25.60
2022-12-16T00:08:41.437Z,24.83
2022-12-16T00:11:08.231Z,24.20
2022-12-16T00:13:36.490Z,24.53
2022-12-16T00:16:11.370Z,24.80
2022-12-16T00:18:37.832Z,23.67
2022-12-16T00:21:05.099Z,23.93
2022-12-16T00:23:33.086Z,25.07
2022-12-16T00:25:59.939Z,24.60
2022-12-16T00:28:26.881Z,24.93
2022-12-16T00:30:55.133Z,23.13
2022-12-16T00:33:24.087Z,25.37
2022-12-16T00:35:51.465Z,24.87
2022-12-16T00:38:18.602Z,24.03
2022-12-16T00:40:45.182Z,23.97
2022-12-16T00:43:11.759Z,23.93
2022-12-16T00:45:39.383Z,22.37
2022-12-16T00:48:06.581Z,22.80
2022-12-16T00:50:33.514Z,23.67
2022-12-16T00:53:00.393Z,21.73
2022-12-16T00:55:27.265Z,23.63
2022-12-16T00:57:53.656Z,21.70
2022-12-16T01:00:22.522Z,22.20
2022-12-16T01:02:50.789Z,22.40
2022-12-16T01:05:20.759Z,22.43
2022-12-16T01:07:48.477Z,20.70
2022-12-16T01:10:15.205Z,21.53
2022-12-16T01:12:41.685Z,22.20
2022-12-16T01:15:09.389Z,20.20
2022-12-16T01:17:36.039Z,20.70
2022-12-16T01:20:02.901Z,20.57
2022-12-16T01:22:33.536Z,21.33
2022-12-16T01:25:01.136Z,20.97
2022-12-16T01:27:28.836Z,20.17
2022-12-16T01:29:55.492Z,22.60
2022-12-16T01:32:22.947Z,21.20
2022-12-16T01:34:55.408Z,21.87
2022-12-16T01:37:23.523Z,20.63
2022-12-16T01:39:50.777Z,20.13
2022-12-16T01:42:22.344Z,20.50
2022-12-16T01:44:52.105Z,19.80
2022-12-16T01:47:30.512Z,20.37
2022-12-16T01:50:04.118Z,20.57
2022-12-16T01:52:36.864Z,18.93
2022-12-16T01:57:58.825Z,20.00
2022-12-16T02:00:25.425Z,19.53
2022-12-16T02:02:53.396Z,19.20
2022-12-16T02:05:22.819Z,19.40
2022-12-16T02:08:16.542Z,20.13
2022-12-16T02:13:52.669Z,19.93
2022-12-16T02:16:21.927Z,19.77
2022-12-16T02:19:02.615Z,19.90
2022-12-16T02:21:46.303Z,19.70
2022-12-16T02:24:40.603Z,19.70
2022-12-16T02:30:06.543Z,18.73
2022-12-16T02:32:56.944Z,18.53
2022-12-16T02:35:55.433Z,19.40
2022-12-16T02:38:30.902Z,18.20
2022-12-16T02:41:06.730Z,18.50
2022-12-16T02:46:55.786Z,18.37
2022-12-16T02:49:22.265Z,17.37
2022-12-16T02:51:49.701Z,19.30
2022-12-16T02:54:17.703Z,18.63
2022-12-16T02:57:02.184Z,18.63
2022-12-16T02:59:51.959Z,18.13
2022-12-16T03:02:36.776Z,17.50
2022-12-16T03:05:12.358Z,18.73
2022-12-16T03:07:41.401Z,18.23
2022-12-16T03:10:11.819Z,18.53
2022-12-16T03:12:41.988Z,17.03
2022-12-16T03:15:10.175Z,17.47
2022-12-16T03:20:28.215Z,18.10
2022-12-16T03:22:59.213Z,19.20
2022-12-16T03:25:27.931Z,17.57
2022-12-16T03:28:15.739Z,15.80
2022-12-16T03:30:47.889Z,17.87
2022-12-16T03:33:28.357Z,16.57
2022-12-16T03:36:05.096Z,17.67
2022-12-16T03:38:33.894Z,17.10
2022-12-16T03:41:02.693Z,17.60
2022-12-16T03:43:30.244Z,17.83
2022-12-16T03:46:03.672Z,17.63
2022-12-16T03:48:31.005Z,18.13
2022-12-16T03:53:41.707Z,17.90
2022-12-16T03:56:08.671Z,18.90
2022-12-16T03:58:39.900Z,17.70
2022-12-16T04:01:10.490Z,18.63
2022-12-16T04:03:37.971Z,17.80
2022-12-16T04:06:05.169Z,17.53
2022-12-16T04:11:34.191Z,18.93
2022-12-16T04:14:19.298Z,18.53
2022-12-16T04:17:04.419Z,18.00
2022-12-16T04:19:53.606Z,17.33
2022-12-16T04:22:44.860Z,16.37
2022-12-16T04:28:00.569Z,17.60
2022-12-16T04:30:28.754Z,16.43
2022-12-16T04:33:17.881Z,18.20
2022-12-16T04:36:03.249Z,17.47
2022-12-16T04:38:48.940Z,18.27
2022-12-16T04:44:36.686Z,15.80
2022-12-16T04:47:21.376Z,19.70
2022-12-16T04:50:06.096Z,19.00
2022-12-16T04:52:50.767Z,16.87
2022-12-16T04:55:36.096Z,16.60
2022-12-16T05:01:24.770Z,18.10
2022-12-16T05:04:09.881Z,17.27
2022-12-16T05:06:54.680Z,17.80
2022-12-16T05:09:39.531Z,19.70
2022-12-16T05:12:24.412Z,18.73
2022-12-16T05:15:09.313Z,16.60
2022-12-16T05:17:54.426Z,18.13
2022-12-16T05:20:39.265Z,15.73
2022-12-16T05:23:24.255Z,15.77
2022-12-16T05:26:08.928Z,16.83
2022-12-16T05:28:54.145Z,16.40
2022-12-16T05:34:42.021Z,17.77
2022-12-16T05:37:27.130Z,17.37
2022-12-16T05:40:11.902Z,16.30
2022-12-16T05:42:56.873Z,15.77
2022-12-16T05:45:41.780Z,16.43
2022-12-16T05:48:26.575Z,17.47
2022-12-16T05:51:11.502Z,16.10
2022-12-16T05:53:56.238Z,15.03
2022-12-16T05:56:41.002Z,16.43
2022-12-16T05:59:25.765Z,16.03
2022-12-16T06:02:11.043Z,16.57
2022-12-16T06:04:55.954Z,20.75
2022-12-16T06:07:41.155Z,18.37
2022-12-16T06:10:26.527Z,17.77
2022-12-16T06:13:11.707Z,17.10
2022-12-16T06:15:56.777Z,17.53
2022-12-16T06:18:42.036Z,18.10
2022-12-16T06:21:26.911Z,17.10
2022-12-16T06:24:12.291Z,14.87
2022-12-16T06:26:57.516Z,15.67
2022-12-16T06:29:42.245Z,14.80
2022-12-16T06:32:31.581Z,16.33
2022-12-16T06:35:16.518Z,15.10
2022-12-16T06:38:01.478Z,14.60
2022-12-16T06:40:46.400Z,15.67
2022-12-16T06:43:31.525Z,13.83
2022-12-16T06:46:16.626Z,14.20
2022-12-16T06:49:01.399Z,15.07
2022-12-16T06:51:46.119Z,14.27
2022-12-16T06:54:31.075Z,16.67
2022-12-16T06:57:16.026Z,15.20
2022-12-16T07:00:01.402Z,14.47
2022-12-16T07:02:46.411Z,15.53
2022-12-16T07:05:31.182Z,16.40
2022-12-16T07:08:15.919Z,16.93
2022-12-16T07:11:15.279Z,15.40
2022-12-16T07:14:01.090Z,15.80
2022-12-16T07:16:46.075Z,14.70
2022-12-16T07:19:31.062Z,16.70
2022-12-16T07:22:16.024Z,15.50
2022-12-16T07:25:00.946Z,16.93
2022-12-16T07:27:45.652Z,17.20
2022-12-16T07:30:30.952Z,18.93
2022-12-16T07:33:15.767Z,17.83
2022-12-16T07:36:02.088Z,18.90
2022-12-16T07:38:47.046Z,18.37
2022-12-16T07:41:31.704Z,17.07
2022-12-16T07:44:16.898Z,19.07
2022-12-16T07:47:01.719Z,20.17
2022-12-16T07:49:46.709Z,20.23
2022-12-16T07:52:31.567Z,19.13
2022-12-16T07:55:16.467Z,21.17
2022-12-16T07:58:08.527Z,20.17
2022-12-16T08:00:54.001Z,19.00
2022-12-16T08:03:41.100Z,21.17
2022-12-16T08:06:26.300Z,20.63
2022-12-16T08:09:11.045Z,18.93
2022-12-16T08:11:55.853Z,20.10
2022-12-16T08:14:40.730Z,18.60
2022-12-16T08:17:33.611Z,18.00
2022-12-16T08:20:18.389Z,18.43
2022-12-16T08:23:03.392Z,18.57
2022-12-16T08:25:48.189Z,19.00
2022-12-16T08:28:33.165Z,17.57
2022-12-16T08:31:17.903Z,17.77
2022-12-16T08:34:02.725Z,16.93
2022-12-16T08:36:47.527Z,18.30
2022-12-16T08:39:32.236Z,18.00
2022-12-16T08:42:16.993Z,17.97
2022-12-16T08:45:01.797Z,17.10
2022-12-16T08:47:51.107Z,17.50
2022-12-16T08:50:35.788Z,16.47
2022-12-16T08:53:20.641Z,16.20
2022-12-16T08:56:05.458Z,17.10
2022-12-16T08:58:50.196Z,17.90
2022-12-16T09:01:36.252Z,19.33
2022-12-16T09:04:20.939Z,16.93
2022-12-16T09:07:06.076Z,17.83
2022-12-16T09:09:50.757Z,17.03
2022-12-16T09:12:35.698Z,17.57
2022-12-16T09:15:40.394Z,15.77
2022-12-16T09:18:25.476Z,15.40
2022-12-16T09:21:10.897Z,16.33
2022-12-16T09:23:56.162Z,15.10
2022-12-16T09:26:41.466Z,15.43
2022-12-16T09:29:26.369Z,15.47
2022-12-16T09:32:11.303Z,15.67
2022-12-16T09:34:56.365Z,16.13
2022-12-16T09:37:41.211Z,17.17
2022-12-16T09:40:31.733Z,15.63
2022-12-16T09:43:31.927Z,15.50
2022-12-16T09:46:28.752Z,16.83
2022-12-16T09:49:43.524Z,16.07
2022-12-16T09:52:36.893Z,17.13
2022-12-16T09:55:34.224Z,15.90
2022-12-16T09:58:20.047Z,16.90
2022-12-16T10:01:05.389Z,16.30
2022-12-16T10:03:58.179Z,17.27
2022-12-16T10:06:54.453Z,16.60
2022-12-16T10:09:53.246Z,16.47
2022-12-16T10:13:04.963Z,17.67
2022-12-16T10:16:00.083Z,17.90
2022-12-16T10:19:06.014Z,17.53
2022-12-16T10:22:15.158Z,17.83
2022-12-16T10:25:08.529Z,17.40
2022-12-16T10:28:02.964Z,16.60
2022-12-16T10:30:49.266Z,17.93
2022-12-16T10:33:36.736Z,17.37
2022-12-16T10:36:21.968Z,18.43
2022-12-16T10:39:19.641Z,17.73
2022-12-16T10:42:10.210Z,17.43
2022-12-16T10:45:13.965Z,17.77
2022-12-16T10:47:58.707Z,17.67
2022-12-16T10:50:43.617Z,20.23
2022-12-16T10:53:32.901Z,19.53
2022-12-16T10:56:43.608Z,19.20
2022-12-16T10:59:28.844Z,20.07
2022-12-16T11:02:23.976Z,19.50
2022-12-16T11:05:09.250Z,19.97
2022-12-16T11:08:10.924Z,20.27
2022-12-16T11:10:58.898Z,18.80
2022-12-16T11:13:52.781Z,18.93
2022-12-16T11:16:40.835Z,20.30
2022-12-16T11:19:43.999Z,20.10
2022-12-16T11:22:38.587Z,23.13
2022-12-16T11:25:31.767Z,21.17
2022-12-16T11:28:22.728Z,19.67
2022-12-16T11:31:17.731Z,19.57
2022-12-16T11:34:03.871Z,19.73
2022-12-16T11:36:51.195Z,21.03
2022-12-16T11:39:40.258Z,21.17
2022-12-16T11:42:30.426Z,21.13
2022-12-16T11:45:19.319Z,21.03
2022-12-16T11:48:08.040Z,20.93
2022-12-16T11:50:57.951Z,22.10
2022-12-16T11:54:03.059Z,20.83
2022-12-16T11:56:58.748Z,22.27
2022-12-16T11:59:58.243Z,20.60
2022-12-16T12:02:54.925Z,21.37
2022-12-16T12:05:49.455Z,21.33
2022-12-16T12:09:13.031Z,21.90
2022-12-16T12:12:08.378Z,22.70
2022-12-16T12:15:20.667Z,21.43
2022-12-16T12:18:35.660Z,21.50
2022-12-16T12:21:37.677Z,20.77
2022-12-16T12:24:57.774Z,22.23
2022-12-16T12:27:52.392Z,21.47
2022-12-16T12:30:39.387Z,22.10
2022-12-16T12:33:52.674Z,21.80
2022-12-16T12:36:38.471Z,21.70
2022-12-16T12:39:47.844Z,22.93
2022-12-16T12:42:56.180Z,21.60
2022-12-16T12:46:09.513Z,22.53
2022-12-16T12:49:22.394Z,21.20
2022-12-16T12:52:22.249Z,23.57
2022-12-16T12:55:19.648Z,22.30
2022-12-16T12:58:06.916Z,23.40
2022-12-16T13:00:57.461Z,23.70
2022-12-16T13:04:04.286Z,24.60
2022-12-16T13:06:50.522Z,23.17
2022-12-16T13:09:43.903Z,24.27
2022-12-16T13:12:28.603Z,25.50
2022-12-16T13:15:29.386Z,24.67
2022-12-16T13:18:20.329Z,23.73
2022-12-16T13:21:15.044Z,25.97
2022-12-16T13:24:01.807Z,25.97
2022-12-16T13:26:50.071Z,25.40
2022-12-16T13:29:34.803Z,25.87
2022-12-16T13:32:23.024Z,25.23
2022-12-16T13:35:34.379Z,26.93
2022-12-16T13:38:23.657Z,26.70
2022-12-16T13:41:15.928Z,28.20
2022-12-16T13:44:17.491Z,25.57
2022-12-16T13:47:10.280Z,26.93
2022-12-16T13:49:55.070Z,26.60
2022-12-16T13:52:58.859Z,26.87
2022-12-16T13:56:01.389Z,25.87
2022-12-16T13:59:09.269Z,26.77
2022-12-16T14:02:05.775Z,27.83
2022-12-16T14:04:58.439Z,27.43
2022-12-16T14:07:45.075Z,27.33
2022-12-16T14:10:49.597Z,28.00
2022-12-16T14:14:00.051Z,26.27
2022-12-16T14:17:33.456Z,28.43
2022-12-16T14:20:42.904Z,28.23
2022-12-16T14:23:58.056Z,28.20
2022-12-16T14:26:44.862Z,28.83
2022-12-16T14:29:44.043Z,28.13
2022-12-16T14:32:41.974Z,30.20
2022-12-16T14:35:37.957Z,31.20
2022-12-16T14:38:49.157Z,31.00
2022-12-16T14:41:38.885Z,29.40
2022-12-16T14:44:34.035Z,29.90
2022-12-16T14:47:19.959Z,27.93
2022-12-16T14:50:10.616Z,29.43
2022-12-16T14:52:56.012Z,28.03
2022-12-16T14:55:53.068Z,27.23
2022-12-16T14:58:40.884Z,26.27
2022-12-16T15:01:39.996Z,29.13
2022-12-16T15:04:39.589Z,28.17
2022-12-16T15:07:31.631Z,27.33
2022-12-16T15:10:18.408Z,29.90
2022-12-16T15:13:05.698Z,28.40
2022-12-16T15:15:53.215Z,28.97
2022-12-16T15:18:42.163Z,29.03
2022-12-16T15:21:27.467Z,29.83
2022-12-16T15:24:12.787Z,29.50
2022-12-16T15:26:57.835Z,30.80
2022-12-16T15:29:52.858Z,30.27
2022-12-16T15:32:44.035Z,29.83
2022-12-16T15:35:30.227Z,30.90
2022-12-16T15:38:32.085Z,31.43
2022-12-16T15:41:17.286Z,29.83
2022-12-16T15:44:04.775Z,30.00
2022-12-16T15:46:51.338Z,30.47
2022-12-16T15:49:59.204Z,31.77
2022-12-16T15:52:56.047Z,31.80
2022-12-16T15:55:55.994Z,32.37
2022-12-16T15:58:47.099Z,32.47
2022-12-16T16:01:38.993Z,33.10
2022-12-16T16:04:37.806Z,33.20
2022-12-16T16:07:22.767Z,35.27
2022-12-16T16:10:07.633Z,33.77
2022-12-16T16:12:52.885Z,36.17
2022-12-16T16:15:37.909Z,35.13
2022-12-16T16:18:24.873Z,36.63
2022-12-16T16:21:10.246Z,36.83
2022-12-16T16:23:55.044Z,36.93
2022-12-16T16:26:44.904Z,36.20
2022-12-16T16:29:30.364Z,37.10
2022-12-16T16:32:15.384Z,37.13
2022-12-16T16:35:01.018Z,39.20
2022-12-16T16:37:45.871Z,36.43
2022-12-16T16:40:47.189Z,33.57
2022-12-16T16:43:32.432Z,32.97
2022-12-16T16:46:18.077Z,32.27
2022-12-16T16:49:02.878Z,33.47
2022-12-16T16:51:48.210Z,34.37
2022-12-16T16:54:33.494Z,36.07
2022-12-16T16:57:20.222Z,33.90
2022-12-16T17:00:05.165Z,33.77
2022-12-16T17:02:50.361Z,35.90
2022-12-16T17:05:35.492Z,36.23
2022-12-16T17:08:20.352Z,37.40
2022-12-16T17:11:05.479Z,33.13
2022-12-16T17:13:50.523Z,29.30
2022-12-16T17:16:35.674Z,30.27
2022-12-16T17:19:22.067Z,32.30
2022-12-16T17:22:06.875Z,30.97
2022-12-16T17:24:54.303Z,29.83
2022-12-16T17:27:43.739Z,31.20
2022-12-16T17:30:44.936Z,35.17
2022-12-16T17:33:33.222Z,36.50
2022-12-16T17:36:18.451Z,36.13
2022-12-16T17:39:03.836Z,36.27
2022-12-16T17:41:51.064Z,37.73
2022-12-16T17:44:36.599Z,35.27
2022-12-16T17:47:22.427Z,36.57
2022-12-16T17:50:07.284Z,35.80
2022-12-16T17:52:51.952Z,37.40
2022-12-16T17:55:36.991Z,37.00
2022-12-16T17:58:22.626Z,33.50
2022-12-16T18:01:07.422Z,34.53
2022-12-16T18:03:52.286Z,36.30
2022-12-16T18:06:38.589Z,38.10
2022-12-16T18:09:23.307Z,37.10
2022-12-16T18:12:08.488Z,41.10
2022-12-16T18:14:53.197Z,39.73
2022-12-16T18:17:38.540Z,39.20
2022-12-16T18:20:23.951Z,39.97
2022-12-16T18:23:11.953Z,38.27
2022-12-16T18:25:57.137Z,39.90
2022-12-16T18:28:43.006Z,39.50
2022-12-16T18:31:28.390Z,40.87
2022-12-16T18:34:13.350Z,39.40
2022-12-16T18:36:58.055Z,40.50
2022-12-16T18:39:43.039Z,39.20
2022-12-16T18:42:28.956Z,41.13
2022-12-16T18:45:13.891Z,40.67
2022-12-16T18:47:58.511Z,40.70
2022-12-16T18:50:43.329Z,40.33
2022-12-16T18:53:28.188Z,40.23
2022-12-16T18:56:25.399Z,40.27
2022-12-16T18:59:10.701Z,41.03
2022-12-16T19:01:56.077Z,42.60
2022-12-16T19:04:41.365Z,41.07
2022-12-16T19:07:26.255Z,41.30
2022-12-16T19:10:10.968Z,39.17
2022-12-16T19:12:56.043Z,39.00
2022-12-16T19:15:41.623Z,41.30
2022-12-16T19:18:26.948Z,38.70
2022-12-16T19:21:15.391Z,37.60
2022-12-16T19:24:00.785Z,37.23
2022-12-16T19:26:46.178Z,37.30
2022-12-16T19:29:30.982Z,37.50
2022-12-16T19:32:15.887Z,35.43
2022-12-16T19:35:00.830Z,36.77
2022-12-16T19:37:45.623Z,40.00
2022-12-16T19:40:30.357Z,36.07
2022-12-16T19:43:15.264Z,36.87
2022-12-16T19:46:00.077Z,31.63
2022-12-16T19:48:44.965Z,36.70
2022-12-16T19:51:29.768Z,36.57
2022-12-16T19:54:14.574Z,39.03
2022-12-16T19:56:59.259Z,35.93
2022-12-16T19:59:44.143Z,34.20
2022-12-16T20:02:30.607Z,34.47
2022-12-16T20:05:15.964Z,33.20
2022-12-16T20:08:00.701Z,34.03
2022-12-16T20:10:45.555Z,34.47
2022-12-16T20:13:31.443Z,38.90
2022-12-16T20:16:24.429Z,34.93
2022-12-16T20:19:09.815Z,34.20
2022-12-16T20:21:55.103Z,36.33
2022-12-16T20:24:41.900Z,34.83
2022-12-16T20:27:27.025Z,33.20
2022-12-16T20:30:11.892Z,30.83
2022-12-16T20:32:57.307Z,27.97
2022-12-16T20:35:42.137Z,27.87
2022-12-16T20:38:27.637Z,27.23
2022-12-16T20:41:20.684Z,29.63
2022-12-16T20:44:06.364Z,30.93
2022-12-16T20:46:56.260Z,29.23
2022-12-16T20:50:00.372Z,27.77
2022-12-16T20:52:45.545Z,28.60
2022-12-16T20:55:30.952Z,29.70
2022-12-16T20:58:15.847Z,27.33
2022-12-16T21:01:01.054Z,29.03
2022-12-16T21:03:46.193Z,27.87
2022-12-16T21:06:31.161Z,27.77
2022-12-16T21:09:16.725Z,28.60
2022-12-16T21:12:01.608Z,28.43
2022-12-16T21:14:46.714Z,29.47
2022-12-16T21:17:31.868Z,25.23
2022-12-16T21:20:16.491Z,27.03
2022-12-16T21:23:01.545Z,26.13
2022-12-16T21:25:46.491Z,24.40
2022-12-16T21:28:31.466Z,34.28
2022-12-16T21:31:18.984Z,28.80
2022-12-16T21:34:04.176Z,28.57
2022-12-16T21:36:49.240Z,27.37
2022-12-16T21:39:33.964Z,26.53
2022-12-16T21:42:18.823Z,27.57
2022-12-16T21:45:03.625Z,26.83
2022-12-16T21:47:48.437Z,29.13
2022-12-16T21:50:33.297Z,26.23
2022-12-16T21:53:18.250Z,27.70
2022-12-16T21:56:10.143Z,26.37
2022-12-16T21:58:55.178Z,25.07
2022-12-16T22:01:40.538Z,24.43
2022-12-16T22:04:25.954Z,25.20
2022-12-16T22:07:10.928Z,25.53
2022-12-16T22:09:56.323Z,25.13
2022-12-16T22:12:41.852Z,25.77
2022-12-16T22:15:27.698Z,26.13
2022-12-16T22:18:12.703Z,25.17
2022-12-16T22:20:57.786Z,26.27
2022-12-16T22:23:49.612Z,25.63
2022-12-16T22:26:34.613Z,26.67
2022-12-16T22:29:19.573Z,25.03
2022-12-16T22:32:04.396Z,26.17
2022-12-16T22:34:49.537Z,26.40
2022-12-16T22:37:51.119Z,26.90
2022-12-16T22:40:37.314Z,26.70
2022-12-16T22:43:22.570Z,27.33
2022-12-16T22:46:16.693Z,25.57
2022-12-16T22:49:01.574Z,27.83
2022-12-16T22:51:46.737Z,27.63
2022-12-16T22:54:48.160Z,27.90
2022-12-16T22:57:40.654Z,25.30
2022-12-16T23:00:26.462Z,25.50
2022-12-16T23:03:11.579Z,25.50
2022-12-16T23:05:56.572Z,25.40
2022-12-16T23:08:41.584Z,24.93
2022-12-16T23:11:37.178Z,23.73
2022-12-16T23:14:22.458Z,22.50
2022-12-16T23:17:07.300Z,22.60
2022-12-16T23:19:52.132Z,22.20
2022-12-16T23:22:37.143Z,22.73
2022-12-16T23:25:22.436Z,22.77
2022-12-16T23:28:07.128Z,23.93
2022-12-16T23:30:55.068Z,20.17
2022-12-16T23:33:41.855Z,21.27
2022-12-16T23:36:27.158Z,20.90
2022-12-16T23:39:12.353Z,22.53
2022-12-16T23:41:57.097Z,22.50
2022-12-16T23:44:42.592Z,20.47
2022-12-16T23:47:27.558Z,20.13
2022-12-16T23:50:15.853Z,21.50
2022-12-16T23:53:00.967Z,21.07
2022-12-16T23:55:45.924Z,21.03
2022-12-16T23:58:30.709Z,22.33
